createdAt,value
2019-02-19T00:02:19.875Z,2.03
2019-02-19T00:04:51.524Z,1.98
2019-02-19T00:07:23.222Z,2.00
2019-02-19T00:09:55.800Z,1.98
2019-02-19T00:12:27.500Z,2.00
2019-02-19T00:15:07.730Z,1.99
2019-02-19T00:17:32.471Z,1.97
2019-02-19T00:20:04.150Z,1.85
2019-02-19T00:22:36.840Z,1.62
2019-02-19T00:25:08.467Z,1.57
2019-02-19T00:27:40.073Z,1.57
2019-02-19T00:30:11.681Z,1.68
2019-02-19T00:32:43.354Z,1.72
2019-02-19T00:35:15.033Z,1.69
2019-02-19T00:37:46.616Z,1.72
2019-02-19T00:40:18.221Z,1.76
2019-02-19T00:42:49.879Z,1.79
2019-02-19T00:45:21.479Z,1.70
2019-02-19T00:47:53.102Z,1.66
2019-02-19T00:50:24.688Z,1.43
2019-02-19T00:52:56.350Z,1.39
2019-02-19T00:55:27.932Z,1.40
2019-02-19T00:57:59.547Z,1.46
2019-02-19T01:00:31.132Z,1.36
2019-02-19T01:03:02.797Z,1.35
2019-02-19T01:05:34.469Z,1.34
2019-02-19T01:08:06.088Z,1.18
2019-02-19T01:10:37.753Z,1.16
2019-02-19T01:13:09.664Z,1.14
2019-02-19T01:15:41.355Z,1.22
2019-02-19T01:18:13.142Z,1.31
2019-02-19T01:20:44.730Z,1.37
2019-02-19T01:23:16.431Z,1.37
2019-02-19T01:25:48.986Z,1.38
2019-02-19T01:28:20.601Z,1.35
2019-02-19T01:30:52.199Z,1.13
2019-02-19T01:33:23.868Z,0.97
2019-02-19T01:35:55.496Z,0.93
2019-02-19T01:38:27.125Z,0.87
2019-02-19T01:40:58.734Z,0.95
2019-02-19T01:43:30.351Z,0.96
2019-02-19T01:46:01.962Z,0.98
2019-02-19T01:48:33.623Z,1.05
2019-02-19T01:51:05.220Z,1.14
2019-02-19T01:53:36.903Z,1.23
2019-02-19T01:56:08.520Z,1.29
2019-02-19T01:58:40.141Z,1.32
2019-02-19T02:01:12.047Z,1.36
2019-02-19T02:03:43.997Z,1.40
2019-02-19T02:06:15.909Z,1.36
2019-02-19T02:08:49.120Z,1.27
2019-02-19T02:11:20.705Z,1.26
2019-02-19T02:13:53.292Z,1.25
2019-02-19T02:16:24.892Z,1.24
2019-02-19T02:18:56.566Z,1.19
2019-02-19T02:21:28.161Z,1.15
2019-02-19T02:23:59.765Z,1.14
2019-02-19T02:26:31.510Z,1.17
2019-02-19T02:29:03.175Z,1.25
2019-02-19T02:31:34.877Z,1.28
2019-02-19T02:34:06.600Z,1.34
2019-02-19T02:36:38.227Z,1.37
2019-02-19T02:39:09.952Z,1.32
2019-02-19T02:41:41.597Z,1.17
2019-02-19T02:44:13.263Z,1.06
2019-02-19T02:46:44.866Z,1.00
2019-02-19T02:49:16.473Z,0.84
2019-02-19T02:51:48.058Z,0.76
2019-02-19T02:54:19.690Z,0.75
2019-02-19T02:56:51.285Z,0.65
2019-02-19T02:59:22.898Z,0.70
2019-02-19T03:01:54.505Z,0.63
2019-02-19T03:04:26.124Z,0.55
2019-02-19T03:07:16.625Z,0.48
2019-02-19T03:09:48.254Z,0.54
2019-02-19T03:12:19.920Z,0.60
2019-02-19T03:14:51.524Z,0.72
2019-02-19T03:17:23.123Z,0.63
2019-02-19T03:19:54.735Z,0.70
2019-02-19T03:22:26.341Z,0.63
2019-02-19T03:24:58.007Z,0.56
2019-02-19T03:27:29.656Z,0.65
2019-02-19T03:30:01.263Z,0.63
2019-02-19T03:32:33.321Z,0.67
2019-02-19T03:35:05.060Z,0.71
2019-02-19T03:37:36.742Z,0.77
2019-02-19T03:40:08.664Z,0.74
2019-02-19T03:42:40.422Z,0.77
2019-02-19T03:45:12.477Z,0.79
2019-02-19T03:47:44.239Z,0.81
2019-02-19T03:50:16.219Z,0.78
2019-02-19T03:52:47.821Z,0.76
2019-02-19T03:55:19.435Z,0.63
2019-02-19T03:57:51.127Z,0.57
2019-02-19T04:00:22.721Z,0.56
2019-02-19T04:02:54.339Z,0.65
2019-02-19T04:05:26.065Z,0.66
2019-02-19T04:07:57.733Z,0.57
2019-02-19T04:10:29.362Z,0.62
2019-02-19T04:13:00.944Z,0.52
2019-02-19T04:15:32.639Z,0.63
2019-02-19T04:18:04.293Z,0.65
2019-02-19T04:20:35.876Z,0.63
2019-02-19T04:23:07.545Z,0.61
2019-02-19T04:25:39.265Z,0.64
2019-02-19T04:28:11.121Z,0.68
2019-02-19T04:30:43.131Z,0.73
2019-02-19T04:33:14.733Z,0.71
2019-02-19T04:35:46.388Z,0.65
2019-02-19T04:38:17.983Z,0.64
2019-02-19T04:40:49.633Z,0.42
2019-02-19T04:43:21.294Z,0.48
2019-02-19T04:45:52.906Z,0.48
2019-02-19T04:48:24.494Z,0.55
2019-02-19T04:50:56.178Z,0.61
2019-02-19T04:53:27.784Z,0.64
2019-02-19T04:55:59.386Z,0.67
2019-02-19T04:58:31.046Z,0.64
2019-02-19T05:01:02.718Z,0.63
2019-02-19T05:03:34.319Z,0.57
2019-02-19T05:06:05.941Z,0.61
2019-02-19T05:08:38.598Z,0.58
2019-02-19T05:11:10.295Z,0.54
2019-02-19T05:13:43.205Z,0.43
2019-02-19T05:16:14.829Z,0.40
2019-02-19T05:18:46.423Z,0.41
2019-02-19T05:21:18.045Z,0.45
2019-02-19T05:23:49.702Z,0.41
2019-02-19T05:26:21.392Z,0.34
2019-02-19T05:28:53.009Z,0.38
2019-02-19T05:31:24.643Z,0.43
2019-02-19T05:33:56.319Z,0.46
2019-02-19T05:36:28.108Z,0.50
2019-02-19T05:38:59.835Z,0.52
2019-02-19T05:41:31.490Z,0.58
2019-02-19T05:44:03.166Z,0.61
2019-02-19T05:46:34.775Z,0.55
2019-02-19T05:49:06.378Z,0.52
2019-02-19T05:51:37.998Z,0.54
2019-02-19T05:54:09.671Z,0.52
2019-02-19T05:56:41.469Z,0.45
2019-02-19T05:59:13.230Z,0.39
2019-02-19T06:01:44.821Z,0.39
2019-02-19T06:04:16.526Z,0.42
2019-02-19T06:06:48.184Z,0.38
2019-02-19T06:09:19.958Z,0.32
2019-02-19T06:11:51.577Z,0.28
2019-02-19T06:14:23.235Z,0.30
2019-02-19T06:16:58.602Z,0.27
2019-02-19T06:19:28.191Z,0.38
2019-02-19T06:21:59.790Z,0.47
2019-02-19T06:24:31.483Z,0.51
2019-02-19T06:27:03.101Z,0.54
2019-02-19T06:29:34.716Z,0.51
2019-02-19T06:32:06.422Z,0.61
2019-02-19T06:34:38.030Z,0.49
2019-02-19T06:37:09.744Z,0.62
2019-02-19T06:39:41.440Z,0.67
2019-02-19T06:42:13.365Z,0.68
2019-02-19T06:44:44.990Z,0.74
2019-02-19T06:47:16.600Z,0.82
2019-02-19T06:49:48.274Z,0.88
2019-02-19T06:52:19.901Z,0.83
2019-02-19T06:54:51.562Z,0.89
2019-02-19T06:57:24.164Z,0.94
2019-02-19T06:59:55.845Z,1.00
2019-02-19T07:02:58.215Z,1.18
2019-02-19T07:05:29.880Z,1.26
2019-02-19T07:08:01.958Z,1.31
2019-02-19T07:10:33.621Z,1.46
2019-02-19T07:13:05.300Z,1.57
2019-02-19T07:15:36.926Z,1.74
2019-02-19T07:18:08.612Z,1.84
2019-02-19T07:20:40.493Z,1.99
2019-02-19T07:23:12.129Z,2.09
2019-02-19T07:25:43.734Z,2.24
2019-02-19T07:28:15.343Z,2.38
2019-02-19T07:30:46.935Z,2.58
2019-02-19T07:33:18.549Z,2.67
2019-02-19T07:35:50.209Z,2.79
2019-02-19T07:38:21.826Z,2.92
2019-02-19T07:40:53.430Z,3.10
2019-02-19T07:43:25.043Z,3.29
2019-02-19T07:45:56.692Z,3.46
2019-02-19T07:48:28.308Z,3.62
2019-02-19T07:50:59.894Z,3.81
2019-02-19T07:53:31.577Z,3.98
2019-02-19T07:56:03.182Z,4.15
2019-02-19T07:58:34.815Z,4.33
2019-02-19T08:01:06.499Z,4.51
2019-02-19T08:03:38.181Z,4.67
2019-02-19T08:06:09.769Z,4.82
2019-02-19T08:08:41.485Z,4.97
2019-02-19T08:11:13.362Z,5.13
2019-02-19T08:13:44.970Z,5.27
2019-02-19T08:16:16.635Z,5.42
2019-02-19T08:18:48.323Z,5.54
2019-02-19T08:21:21.615Z,5.72
2019-02-19T08:23:53.303Z,5.83
2019-02-19T08:26:24.902Z,6.02
2019-02-19T08:29:04.221Z,6.13
2019-02-19T08:31:29.894Z,6.27
2019-02-19T08:34:01.569Z,6.37
2019-02-19T08:36:33.241Z,6.51
2019-02-19T08:39:05.516Z,6.59
2019-02-19T08:41:37.597Z,6.69
2019-02-19T08:44:09.548Z,6.83
2019-02-19T08:46:41.454Z,6.91
2019-02-19T08:49:13.348Z,7.00
2019-02-19T08:51:45.031Z,7.13
2019-02-19T08:54:16.638Z,7.23
2019-02-19T08:56:48.233Z,7.34
2019-02-19T08:59:19.842Z,7.45
2019-02-19T09:01:51.463Z,7.51
2019-02-19T09:04:23.048Z,7.57
2019-02-19T09:06:54.713Z,7.67
2019-02-19T09:09:26.398Z,7.83
2019-02-19T09:11:58.062Z,7.97
2019-02-19T09:14:29.689Z,8.11
2019-02-19T09:17:01.319Z,8.29
2019-02-19T09:19:32.999Z,8.44
2019-02-19T09:22:04.668Z,8.58
2019-02-19T09:24:36.291Z,8.75
2019-02-19T09:27:07.898Z,8.81
2019-02-19T09:29:39.617Z,8.95
2019-02-19T09:32:11.434Z,9.02
2019-02-19T09:34:43.294Z,9.11
2019-02-19T09:37:14.880Z,9.24
2019-02-19T09:39:46.496Z,9.38
2019-02-19T09:42:18.154Z,9.41
2019-02-19T09:44:49.822Z,9.56
2019-02-19T09:47:21.432Z,9.61
2019-02-19T09:49:53.049Z,9.58
2019-02-19T09:52:24.645Z,9.73
2019-02-19T09:54:56.249Z,9.87
2019-02-19T09:57:27.911Z,9.93
2019-02-19T09:59:59.526Z,9.98
2019-02-19T10:02:31.229Z,9.94
2019-02-19T10:05:03.134Z,9.84
2019-02-19T10:07:34.787Z,9.84
2019-02-19T10:10:08.128Z,9.94
2019-02-19T10:12:39.783Z,9.93
2019-02-19T10:15:12.372Z,9.89
2019-02-19T10:17:44.057Z,10.09
2019-02-19T10:20:16.065Z,10.15
2019-02-19T10:22:47.731Z,10.38
2019-02-19T10:25:19.422Z,10.65
2019-02-19T10:27:51.308Z,10.71
2019-02-19T10:30:22.941Z,10.68
2019-02-19T10:32:54.615Z,10.90
2019-02-19T10:35:26.304Z,11.08
2019-02-19T10:37:57.970Z,11.18
2019-02-19T10:40:29.592Z,11.00
2019-02-19T10:43:01.195Z,11.09
2019-02-19T10:45:32.811Z,11.15
2019-02-19T10:48:04.473Z,11.14
2019-02-19T10:50:36.164Z,11.09
2019-02-19T10:53:07.767Z,11.30
2019-02-19T10:55:39.601Z,11.43
2019-02-19T10:58:11.628Z,11.41
2019-02-19T11:00:43.559Z,11.41
2019-02-19T11:03:15.170Z,11.39
2019-02-19T11:05:46.886Z,11.39
2019-02-19T11:08:18.496Z,11.49
2019-02-19T11:10:51.100Z,11.54
2019-02-19T11:13:22.775Z,11.74
2019-02-19T11:15:54.381Z,11.83
2019-02-19T11:18:28.672Z,11.87
2019-02-19T11:21:00.518Z,11.81
2019-02-19T11:23:33.737Z,11.90
2019-02-19T11:26:05.509Z,11.96
2019-02-19T11:28:37.128Z,11.99
2019-02-19T11:31:08.762Z,12.01
2019-02-19T11:33:40.583Z,12.05
2019-02-19T11:36:12.220Z,12.01
2019-02-19T11:38:43.823Z,11.89
2019-02-19T11:41:15.549Z,11.92
2019-02-19T11:43:47.172Z,11.91
2019-02-19T11:46:18.785Z,11.89
2019-02-19T11:48:50.391Z,11.84
2019-02-19T11:51:21.990Z,11.81
2019-02-19T11:53:53.602Z,11.82
2019-02-19T11:56:25.234Z,11.73
2019-02-19T11:58:56.904Z,11.73
2019-02-19T12:01:28.557Z,11.80
2019-02-19T12:04:01.627Z,11.65
2019-02-19T12:06:33.305Z,11.73
2019-02-19T12:09:05.712Z,11.78
2019-02-19T12:11:37.799Z,11.80
2019-02-19T12:14:09.616Z,11.87
2019-02-19T12:16:41.514Z,11.92
2019-02-19T12:19:13.393Z,11.83
2019-02-19T12:21:46.401Z,11.77
2019-02-19T12:24:18.002Z,11.76
2019-02-19T12:26:49.687Z,11.82
2019-02-19T12:29:21.291Z,11.70
2019-02-19T12:31:52.979Z,11.75
2019-02-19T12:34:24.584Z,11.86
2019-02-19T12:36:56.306Z,11.87
2019-02-19T12:39:27.991Z,11.79
2019-02-19T12:41:59.628Z,11.80
2019-02-19T12:44:31.303Z,11.76
2019-02-19T12:47:02.962Z,11.76
2019-02-19T12:49:34.639Z,11.72
2019-02-19T12:52:06.268Z,11.72
2019-02-19T12:54:37.875Z,11.73
2019-02-19T12:57:09.654Z,11.73
2019-02-19T12:59:41.508Z,11.75
2019-02-19T13:02:13.446Z,11.69
2019-02-19T13:04:45.047Z,11.63
2019-02-19T13:07:16.760Z,11.65
2019-02-19T13:09:48.373Z,11.71
2019-02-19T13:12:19.991Z,11.69
2019-02-19T13:14:51.615Z,11.62
2019-02-19T13:17:23.300Z,11.65
2019-02-19T13:19:55.002Z,11.67
2019-02-19T13:22:26.635Z,11.58
2019-02-19T13:24:58.258Z,11.60
2019-02-19T13:27:29.867Z,11.61
2019-02-19T13:30:01.488Z,11.57
2019-02-19T13:32:33.162Z,11.48
2019-02-19T13:35:08.923Z,11.40
2019-02-19T13:37:41.772Z,11.39
2019-02-19T13:40:14.153Z,11.20
2019-02-19T13:42:45.968Z,11.16
2019-02-19T13:45:17.718Z,11.10
2019-02-19T13:47:49.440Z,10.97
2019-02-19T13:50:21.534Z,11.03
2019-02-19T13:53:17.938Z,10.94
2019-02-19T13:55:52.230Z,10.93
2019-02-19T13:58:23.937Z,10.92
2019-02-19T14:00:55.542Z,10.90
2019-02-19T14:03:27.210Z,10.87
2019-02-19T14:05:58.797Z,10.77
2019-02-19T14:08:30.410Z,10.74
2019-02-19T14:11:02.009Z,10.61
2019-02-19T14:13:33.711Z,10.53
2019-02-19T14:16:18.158Z,10.44
2019-02-19T14:18:57.874Z,10.54
2019-02-19T14:21:51.009Z,10.40
2019-02-19T14:24:38.330Z,10.40
2019-02-19T14:27:31.823Z,10.27
2019-02-19T14:30:21.574Z,10.27
2019-02-19T14:33:09.221Z,10.24
2019-02-19T14:35:58.070Z,10.19
2019-02-19T14:39:03.823Z,10.18
2019-02-19T14:41:49.313Z,10.12
2019-02-19T14:44:41.196Z,10.04
2019-02-19T14:47:34.700Z,10.00
2019-02-19T14:50:35.526Z,9.91
2019-02-19T14:53:34.766Z,9.88
2019-02-19T14:56:34.078Z,9.84
2019-02-19T14:59:23.237Z,9.91
2019-02-19T15:02:12.255Z,9.85
2019-02-19T15:05:08.460Z,9.90
2019-02-19T15:08:04.966Z,9.87
2019-02-19T15:11:03.660Z,9.88
2019-02-19T15:13:48.286Z,9.91
2019-02-19T15:16:37.463Z,9.88
2019-02-19T15:19:20.175Z,9.92
2019-02-19T15:22:16.678Z,9.81
2019-02-19T15:25:09.969Z,9.79
2019-02-19T15:28:00.798Z,9.77
2019-02-19T15:31:00.269Z,9.73
2019-02-19T15:34:08.980Z,9.69
2019-02-19T15:36:58.494Z,9.58
2019-02-19T15:40:03.882Z,9.62
2019-02-19T15:42:54.002Z,9.61
2019-02-19T15:45:43.745Z,9.61
2019-02-19T15:48:32.859Z,9.62
2019-02-19T15:51:17.890Z,9.64
2019-02-19T15:54:07.131Z,9.60
2019-02-19T15:56:57.347Z,9.54
2019-02-19T15:59:46.595Z,9.53
2019-02-19T16:02:39.935Z,9.47
2019-02-19T16:05:30.964Z,9.47
2019-02-19T16:08:24.045Z,9.51
2019-02-19T16:11:21.656Z,9.40
2019-02-19T16:14:02.557Z,9.39
2019-02-19T16:16:43.763Z,9.38
2019-02-19T16:19:32.981Z,9.40
2019-02-19T16:22:20.586Z,9.36
2019-02-19T16:25:09.725Z,9.32
2019-02-19T16:28:18.642Z,9.26
2019-02-19T16:31:09.236Z,9.21
2019-02-19T16:34:08.672Z,9.18
2019-02-19T16:36:49.132Z,9.08
2019-02-19T16:39:38.268Z,9.05
2019-02-19T16:42:27.035Z,8.97
2019-02-19T16:45:26.617Z,9.01
2019-02-19T16:48:15.583Z,8.95
2019-02-19T16:51:12.207Z,8.99
2019-02-19T16:54:02.795Z,8.96
2019-02-19T16:56:56.226Z,8.89
2019-02-19T16:59:50.474Z,8.86
2019-02-19T17:02:43.865Z,8.84
2019-02-19T17:05:34.638Z,8.79
2019-02-19T17:08:15.550Z,8.80
2019-02-19T17:11:16.078Z,8.71
2019-02-19T17:14:07.134Z,8.64
2019-02-19T17:16:54.419Z,8.66
2019-02-19T17:19:56.843Z,8.53
2019-02-19T17:22:40.823Z,8.53
2019-02-19T17:25:37.372Z,8.55
2019-02-19T17:28:25.687Z,8.54
2019-02-19T17:31:17.837Z,8.51
2019-02-19T17:34:11.597Z,8.46
2019-02-19T17:37:04.887Z,8.44
2019-02-19T17:39:59.536Z,8.42
2019-02-19T17:42:51.636Z,8.35
2019-02-19T17:45:38.502Z,8.37
2019-02-19T17:48:27.623Z,8.34
2019-02-19T17:51:14.779Z,8.33
2019-02-19T17:54:08.004Z,8.36
2019-02-19T17:57:13.454Z,8.29
2019-02-19T18:00:04.728Z,8.23
2019-02-19T18:03:10.107Z,8.20
2019-02-19T18:06:08.653Z,8.20
2019-02-19T18:09:01.878Z,8.19
2019-02-19T18:11:52.799Z,8.18
2019-02-19T18:14:44.329Z,8.11
2019-02-19T18:17:29.437Z,7.97
2019-02-19T18:20:01.247Z,8.05
2019-02-19T18:22:34.656Z,8.05
2019-02-19T18:25:07.168Z,8.10
2019-02-19T18:27:38.862Z,8.10
2019-02-19T18:30:10.489Z,8.04
2019-02-19T18:32:42.166Z,8.11
2019-02-19T18:35:14.397Z,8.14
2019-02-19T18:37:46.227Z,8.15
2019-02-19T18:40:18.163Z,8.15
2019-02-19T18:42:50.146Z,8.17
2019-02-19T18:45:22.565Z,8.13
2019-02-19T18:47:54.228Z,8.18
2019-02-19T18:50:26.398Z,8.21
2019-02-19T18:52:58.510Z,8.25
2019-02-19T18:55:33.423Z,8.23
2019-02-19T18:58:05.440Z,8.21
2019-02-19T19:00:37.120Z,8.15
2019-02-19T19:03:08.996Z,8.27
2019-02-19T19:05:40.840Z,8.24
2019-02-19T19:08:12.665Z,8.25
2019-02-19T19:10:44.562Z,8.28
2019-02-19T19:13:16.353Z,8.30
2019-02-19T19:15:48.322Z,8.29
2019-02-19T19:18:21.205Z,8.29
2019-02-19T19:20:55.654Z,8.23
2019-02-19T19:23:28.018Z,8.25
2019-02-19T19:25:59.714Z,8.28
2019-02-19T19:28:31.612Z,8.25
2019-02-19T19:31:03.603Z,8.20
2019-02-19T19:33:35.920Z,8.21
2019-02-19T19:36:07.871Z,8.13
2019-02-19T19:38:39.687Z,8.11
2019-02-19T19:41:12.782Z,8.10
2019-02-19T19:43:44.585Z,8.07
2019-02-19T19:46:16.548Z,8.05
2019-02-19T19:48:49.454Z,8.05
2019-02-19T19:51:21.509Z,8.04
2019-02-19T19:53:53.848Z,8.10
2019-02-19T19:56:27.102Z,8.13
2019-02-19T19:58:58.924Z,8.11
2019-02-19T20:01:32.053Z,8.11
2019-02-19T20:04:04.584Z,8.16
2019-02-19T20:06:36.722Z,8.21
2019-02-19T20:09:08.788Z,8.22
2019-02-19T20:11:42.049Z,8.17
2019-02-19T20:14:14.364Z,8.14
2019-02-19T20:16:46.319Z,8.11
2019-02-19T20:19:18.947Z,8.12
2019-02-19T20:21:51.087Z,8.12
2019-02-19T20:24:23.545Z,8.08
2019-02-19T20:26:56.285Z,8.01
2019-02-19T20:29:28.944Z,7.90
2019-02-19T20:32:01.052Z,7.85
2019-02-19T20:34:32.958Z,7.84
2019-02-19T20:37:05.065Z,7.74
2019-02-19T20:39:37.746Z,7.63
2019-02-19T20:42:10.913Z,7.60
2019-02-19T20:44:44.063Z,7.55
2019-02-19T20:47:16.591Z,7.42
2019-02-19T20:49:48.243Z,7.43
2019-02-19T20:52:20.546Z,7.37
2019-02-19T20:54:52.248Z,7.43
2019-02-19T20:57:24.307Z,7.43
2019-02-19T20:59:56.021Z,7.41
2019-02-19T21:02:30.490Z,7.35
2019-02-19T21:05:02.279Z,7.37
2019-02-19T21:07:35.518Z,7.32
2019-02-19T21:10:09.705Z,7.23
2019-02-19T21:12:44.785Z,7.26
2019-02-19T21:15:16.576Z,7.30
2019-02-19T21:17:48.856Z,7.30
2019-02-19T21:20:22.106Z,7.32
2019-02-19T21:22:55.100Z,7.36
2019-02-19T21:25:31.056Z,7.28
2019-02-19T21:28:00.771Z,7.29
2019-02-19T21:30:32.866Z,7.29
2019-02-19T21:33:05.167Z,7.24
2019-02-19T21:35:37.297Z,7.23
2019-02-19T21:38:09.323Z,7.21
2019-02-19T21:40:41.078Z,7.16
2019-02-19T21:43:12.839Z,7.16
2019-02-19T21:45:44.605Z,7.16
2019-02-19T21:48:17.837Z,7.13
2019-02-19T21:50:51.159Z,7.13
2019-02-19T21:53:23.509Z,7.14
2019-02-19T21:55:55.200Z,7.10
2019-02-19T21:58:26.941Z,7.08
2019-02-19T22:00:59.228Z,7.12
2019-02-19T22:03:31.258Z,7.07
2019-02-19T22:06:06.760Z,7.06
2019-02-19T22:08:39.679Z,6.99
2019-02-19T22:11:11.368Z,6.98
2019-02-19T22:13:43.287Z,6.95
2019-02-19T22:16:14.968Z,6.99
2019-02-19T22:18:46.767Z,6.98
2019-02-19T22:21:37.394Z,7.02
2019-02-19T22:24:09.506Z,7.06
2019-02-19T22:26:41.240Z,7.13
2019-02-19T22:29:12.938Z,7.17
2019-02-19T22:31:44.711Z,7.11
2019-02-19T22:34:16.908Z,7.09
2019-02-19T22:36:50.136Z,7.07
2019-02-19T22:39:21.828Z,7.05
2019-02-19T22:41:53.510Z,6.97
2019-02-19T22:44:25.190Z,6.85
2019-02-19T22:46:58.712Z,6.76
2019-02-19T22:49:30.396Z,6.57
2019-02-19T22:52:02.063Z,6.56
2019-02-19T22:54:43.993Z,6.52
2019-02-19T22:57:16.386Z,6.53
2019-02-19T22:59:48.043Z,6.41
2019-02-19T23:02:24.106Z,6.30
2019-02-19T23:04:56.376Z,6.23
2019-02-19T23:07:28.140Z,6.16
2019-02-19T23:10:01.300Z,6.10
2019-02-19T23:12:34.263Z,6.08
2019-02-19T23:15:06.130Z,6.05
2019-02-19T23:17:38.355Z,6.05
2019-02-19T23:20:10.022Z,6.05
2019-02-19T23:22:41.768Z,5.98
2019-02-19T23:25:14.048Z,6.01
2019-02-19T23:27:47.120Z,6.01
2019-02-19T23:30:18.785Z,5.97
2019-02-19T23:32:50.451Z,6.03
2019-02-19T23:35:38.729Z,6.03
2019-02-19T23:38:10.394Z,5.91
2019-02-19T23:40:42.050Z,6.02
2019-02-19T23:43:13.632Z,6.03
2019-02-19T23:45:45.469Z,6.07
2019-02-19T23:48:17.119Z,6.12
2019-02-19T23:50:48.783Z,6.17
2019-02-19T23:53:20.439Z,6.21
2019-02-19T23:55:52.012Z,6.25
2019-02-19T23:58:23.665Z,6.27
